sensor_id;sensor_type;location;lat;lon;timestamp;temperature;humidity
21184;DHT22;18176;49.502;11.754;2023-11-19T00:01:01;3.80;99.90
21184;DHT22;18176;49.502;11.754;2023-11-19T00:05:06;3.80;99.90
21184;DHT22;18176;49.502;11.754;2023-11-19T00:09:09;3.80;99.90
21184;DHT22;18176;49.502;11.754;2023-11-19T00:13:10;3.80;99.90
21184;DHT22;18176;49.502;11.754;2023-11-19T00:17:11;3.90;99.90
21184;DHT22;18176;49.502;11.754;2023-11-19T00:21:14;3.80;99.90
21184;DHT22;18176;49.502;11.754;2023-11-19T00:25:14;3.80;99.90
21184;DHT22;18176;49.502;11.754;2023-11-19T00:29:15;3.90;99.90
21184;DHT22;18176;49.502;11.754;2023-11-19T00:33:16;3.90;99.90
21184;DHT22;18176;49.502;11.754;2023-11-19T00:37:19;3.90;99.90
21184;DHT22;18176;49.502;11.754;2023-11-19T00:41:20;3.90;99.90
21184;DHT22;18176;49.502;11.754;2023-11-19T00:45:20;3.90;99.90
21184;DHT22;18176;49.502;11.754;2023-11-19T00:49:21;3.90;99.90
21184;DHT22;18176;49.502;11.754;2023-11-19T00:53:23;3.90;99.90
21184;DHT22;18176;49.502;11.754;2023-11-19T00:57:24;3.90;99.90
21184;DHT22;18176;49.502;11.754;2023-11-19T01:01:24;3.90;99.90
21184;DHT22;18176;49.502;11.754;2023-11-19T01:05:24;4.00;99.90
21184;DHT22;18176;49.502;11.754;2023-11-19T01:09:28;4.00;99.90
21184;DHT22;18176;49.502;11.754;2023-11-19T01:13:29;3.90;99.90
21184;DHT22;18176;49.502;11.754;2023-11-19T01:17:29;4.00;99.90
21184;DHT22;18176;49.502;11.754;2023-11-19T01:21:30;4.00;99.90
21184;DHT22;18176;49.502;11.754;2023-11-19T01:25:33;4.00;99.90
21184;DHT22;18176;49.502;11.754;2023-11-19T01:29:35;4.00;99.90
21184;DHT22;18176;49.502;11.754;2023-11-19T01:33:36;4.00;99.90
21184;DHT22;18176;49.502;11.754;2023-11-19T01:37:37;4.00;99.90
21184;DHT22;18176;49.502;11.754;2023-11-19T01:41:40;4.10;99.90
21184;DHT22;18176;49.502;11.754;2023-11-19T01:45:40;4.10;99.90
21184;DHT22;18176;49.502;11.754;2023-11-19T01:49:40;4.10;99.90
21184;DHT22;18176;49.502;11.754;2023-11-19T01:53:40;4.10;99.90
21184;DHT22;18176;49.502;11.754;2023-11-19T01:57:43;4.10;99.90
21184;DHT22;18176;49.502;11.754;2023-11-19T02:01:44;4.10;99.90
21184;DHT22;18176;49.502;11.754;2023-11-19T02:05:56;4.10;99.90
21184;DHT22;18176;49.502;11.754;2023-11-19T02:09:56;4.10;99.90
21184;DHT22;18176;49.502;11.754;2023-11-19T02:14:03;4.10;99.90
21184;DHT22;18176;49.502;11.754;2023-11-19T02:18:20;4.10;99.90
21184;DHT22;18176;49.502;11.754;2023-11-19T02:22:21;4.10;99.90
21184;DHT22;18176;49.502;11.754;2023-11-19T02:26:28;4.10;99.90
21184;DHT22;18176;49.502;11.754;2023-11-19T02:30:38;4.10;99.90
21184;DHT22;18176;49.502;11.754;2023-11-19T02:34:38;4.10;99.90
21184;DHT22;18176;49.502;11.754;2023-11-19T02:38:38;4.20;99.90
21184;DHT22;18176;49.502;11.754;2023-11-19T02:42:38;4.20;99.90
21184;DHT22;18176;49.502;11.754;2023-11-19T02:46:41;4.20;99.90
21184;DHT22;18176;49.502;11.754;2023-11-19T02:50:42;4.20;99.90
21184;DHT22;18176;49.502;11.754;2023-11-19T02:54:43;4.20;99.90
21184;DHT22;18176;49.502;11.754;2023-11-19T02:58:44;4.20;99.90
21184;DHT22;18176;49.502;11.754;2023-11-19T03:02:48;4.20;99.90
21184;DHT22;18176;49.502;11.754;2023-11-19T03:06:56;4.20;99.90
21184;DHT22;18176;49.502;11.754;2023-11-19T03:10:57;4.20;99.90
21184;DHT22;18176;49.502;11.754;2023-11-19T03:14:57;4.20;99.90
21184;DHT22;18176;49.502;11.754;2023-11-19T03:19:00;4.20;99.90
21184;DHT22;18176;49.502;11.754;2023-11-19T03:23:01;4.30;99.90
21184;DHT22;18176;49.502;11.754;2023-11-19T03:27:03;4.30;99.90
21184;DHT22;18176;49.502;11.754;2023-11-19T03:31:05;4.30;99.90
21184;DHT22;18176;49.502;11.754;2023-11-19T03:35:09;4.30;99.90
21184;DHT22;18176;49.502;11.754;2023-11-19T03:39:09;4.30;99.90
21184;DHT22;18176;49.502;11.754;2023-11-19T03:43:09;4.30;99.90
21184;DHT22;18176;49.502;11.754;2023-11-19T03:47:09;4.30;99.90
21184;DHT22;18176;49.502;11.754;2023-11-19T03:51:12;4.40;99.90
21184;DHT22;18176;49.502;11.754;2023-11-19T03:55:13;4.40;99.90
21184;DHT22;18176;49.502;11.754;2023-11-19T03:59:14;4.40;99.90
21184;DHT22;18176;49.502;11.754;2023-11-19T04:03:17;4.30;99.90
21184;DHT22;18176;49.502;11.754;2023-11-19T04:07:21;4.40;99.90
21184;DHT22;18176;49.502;11.754;2023-11-19T04:11:21;4.40;99.90
21184;DHT22;18176;49.502;11.754;2023-11-19T04:15:22;4.40;99.90
21184;DHT22;18176;49.502;11.754;2023-11-19T04:19:22;4.40;99.90
21184;DHT22;18176;49.502;11.754;2023-11-19T04:23:25;4.40;99.90
21184;DHT22;18176;49.502;11.754;2023-11-19T04:27:25;4.40;99.90
21184;DHT22;18176;49.502;11.754;2023-11-19T04:31:29;4.40;99.90
21184;DHT22;18176;49.502;11.754;2023-11-19T04:35:30;4.40;99.90
21184;DHT22;18176;49.502;11.754;2023-11-19T04:39:33;4.50;99.90
21184;DHT22;18176;49.502;11.754;2023-11-19T04:43:34;4.50;99.90
21184;DHT22;18176;49.502;11.754;2023-11-19T04:47:34;4.50;99.90
21184;DHT22;18176;49.502;11.754;2023-11-19T04:51:38;4.40;99.90
21184;DHT22;18176;49.502;11.754;2023-11-19T04:55:42;4.50;99.90
21184;DHT22;18176;49.502;11.754;2023-11-19T04:59:42;4.50;99.90
21184;DHT22;18176;49.502;11.754;2023-11-19T05:03:43;4.50;99.90
21184;DHT22;18176;49.502;11.754;2023-11-19T05:07:43;4.50;99.90
21184;DHT22;18176;49.502;11.754;2023-11-19T05:11:46;4.50;99.90
21184;DHT22;18176;49.502;11.754;2023-11-19T05:15:47;4.60;99.90
21184;DHT22;18176;49.502;11.754;2023-11-19T05:19:48;4.60;99.90
21184;DHT22;18176;49.502;11.754;2023-11-19T05:23:48;4.60;99.90
21184;DHT22;18176;49.502;11.754;2023-11-19T05:27:51;4.70;99.90
21184;DHT22;18176;49.502;11.754;2023-11-19T05:31:51;4.80;99.90
21184;DHT22;18176;49.502;11.754;2023-11-19T05:35:51;4.80;99.90
21184;DHT22;18176;49.502;11.754;2023-11-19T05:39:52;4.80;99.90
21184;DHT22;18176;49.502;11.754;2023-11-19T05:43:54;4.90;99.90
21184;DHT22;18176;49.502;11.754;2023-11-19T05:47:55;4.90;99.90
21184;DHT22;18176;49.502;11.754;2023-11-19T05:51:55;4.90;99.90
21184;DHT22;18176;49.502;11.754;2023-11-19T05:55:55;5.00;99.90
21184;DHT22;18176;49.502;11.754;2023-11-19T05:59:58;5.00;99.90
21184;DHT22;18176;49.502;11.754;2023-11-19T06:04:07;5.10;99.90
21184;DHT22;18176;49.502;11.754;2023-11-19T06:08:07;5.20;99.90
21184;DHT22;18176;49.502;11.754;2023-11-19T06:12:08;5.20;99.90
21184;DHT22;18176;49.502;11.754;2023-11-19T06:16:12;5.30;99.90
21184;DHT22;18176;49.502;11.754;2023-11-19T06:20:12;5.30;99.90
21184;DHT22;18176;49.502;11.754;2023-11-19T06:24:14;5.40;99.90
21184;DHT22;18176;49.502;11.754;2023-11-19T06:28:14;5.40;99.90
21184;DHT22;18176;49.502;11.754;2023-11-19T06:32:17;5.40;99.90
21184;DHT22;18176;49.502;11.754;2023-11-19T06:36:18;5.50;99.90
21184;DHT22;18176;49.502;11.754;2023-11-19T06:40:18;5.50;99.90
21184;DHT22;18176;49.502;11.754;2023-11-19T06:44:19;5.60;99.90
21184;DHT22;18176;49.502;11.754;2023-11-19T06:48:21;5.60;99.90
21184;DHT22;18176;49.502;11.754;2023-11-19T06:52:22;5.60;99.90
21184;DHT22;18176;49.502;11.754;2023-11-19T06:56:24;5.70;99.90
21184;DHT22;18176;49.502;11.754;2023-11-19T07:00:24;5.60;99.90
21184;DHT22;18176;49.502;11.754;2023-11-19T07:04:27;5.60;99.90
21184;DHT22;18176;49.502;11.754;2023-11-19T07:08:27;5.60;99.90
21184;DHT22;18176;49.502;11.754;2023-11-19T07:12:27;5.60;99.90
21184;DHT22;18176;49.502;11.754;2023-11-19T07:16:28;5.70;99.90
21184;DHT22;18176;49.502;11.754;2023-11-19T07:20:31;5.70;99.90
21184;DHT22;18176;49.502;11.754;2023-11-19T07:24:31;5.70;99.90
21184;DHT22;18176;49.502;11.754;2023-11-19T07:28:31;5.70;99.90
21184;DHT22;18176;49.502;11.754;2023-11-19T07:32:32;5.80;99.90
21184;DHT22;18176;49.502;11.754;2023-11-19T07:36:35;5.80;99.90
21184;DHT22;18176;49.502;11.754;2023-11-19T07:40:35;5.80;99.90
21184;DHT22;18176;49.502;11.754;2023-11-19T07:44:35;5.90;99.90
21184;DHT22;18176;49.502;11.754;2023-11-19T07:48:36;5.90;99.90
21184;DHT22;18176;49.502;11.754;2023-11-19T07:52:39;5.90;99.90
21184;DHT22;18176;49.502;11.754;2023-11-19T07:56:39;6.00;99.90
21184;DHT22;18176;49.502;11.754;2023-11-19T08:00:39;6.10;99.90
21184;DHT22;18176;49.502;11.754;2023-11-19T08:04:40;6.10;99.90
21184;DHT22;18176;49.502;11.754;2023-11-19T08:08:45;6.20;99.90
21184;DHT22;18176;49.502;11.754;2023-11-19T08:12:46;6.20;99.90
21184;DHT22;18176;49.502;11.754;2023-11-19T08:16:46;6.20;99.90
21184;DHT22;18176;49.502;11.754;2023-11-19T08:20:46;6.20;99.90
21184;DHT22;18176;49.502;11.754;2023-11-19T08:24:53;6.30;99.90
21184;DHT22;18176;49.502;11.754;2023-11-19T08:28:53;6.40;99.90
21184;DHT22;18176;49.502;11.754;2023-11-19T08:32:55;6.50;99.90
21184;DHT22;18176;49.502;11.754;2023-11-19T08:36:55;6.50;99.90
21184;DHT22;18176;49.502;11.754;2023-11-19T08:40:58;6.50;99.90
21184;DHT22;18176;49.502;11.754;2023-11-19T08:44:59;6.60;99.90
21184;DHT22;18176;49.502;11.754;2023-11-19T08:48:59;6.70;99.90
21184;DHT22;18176;49.502;11.754;2023-11-19T08:53:00;6.90;99.90
21184;DHT22;18176;49.502;11.754;2023-11-19T08:57:06;7.10;99.90
21184;DHT22;18176;49.502;11.754;2023-11-19T09:01:06;7.30;99.90
21184;DHT22;18176;49.502;11.754;2023-11-19T09:05:08;7.70;99.90
21184;DHT22;18176;49.502;11.754;2023-11-19T09:09:10;8.00;99.90
21184;DHT22;18176;49.502;11.754;2023-11-19T09:13:13;8.20;99.90
21184;DHT22;18176;49.502;11.754;2023-11-19T09:17:14;8.20;99.90
21184;DHT22;18176;49.502;11.754;2023-11-19T09:21:15;8.20;99.90
21184;DHT22;18176;49.502;11.754;2023-11-19T09:25:15;8.20;99.90
21184;DHT22;18176;49.502;11.754;2023-11-19T09:29:19;8.40;99.90
21184;DHT22;18176;49.502;11.754;2023-11-19T09:33:19;8.50;99.90
21184;DHT22;18176;49.502;11.754;2023-11-19T09:37:19;8.70;99.90
21184;DHT22;18176;49.502;11.754;2023-11-19T09:41:20;9.00;99.90
21184;DHT22;18176;49.502;11.754;2023-11-19T09:45:27;9.20;99.90
21184;DHT22;18176;49.502;11.754;2023-11-19T09:49:29;9.50;99.90
21184;DHT22;18176;49.502;11.754;2023-11-19T09:53:32;9.70;99.90
21184;DHT22;18176;49.502;11.754;2023-11-19T09:57:34;9.90;99.90
21184;DHT22;18176;49.502;11.754;2023-11-19T10:01:40;10.20;99.90
21184;DHT22;18176;49.502;11.754;2023-11-19T10:05:42;10.50;99.90
21184;DHT22;18176;49.502;11.754;2023-11-19T10:09:42;10.80;99.90
21184;DHT22;18176;49.502;11.754;2023-11-19T10:13:44;11.00;99.90
21184;DHT22;18176;49.502;11.754;2023-11-19T10:17:48;11.30;99.90
21184;DHT22;18176;49.502;11.754;2023-11-19T10:21:49;11.50;99.90
21184;DHT22;18176;49.502;11.754;2023-11-19T10:25:53;11.40;99.90
21184;DHT22;18176;49.502;11.754;2023-11-19T10:29:53;11.20;99.90
21184;DHT22;18176;49.502;11.754;2023-11-19T10:33:56;11.20;99.90
21184;DHT22;18176;49.502;11.754;2023-11-19T10:37:59;11.30;99.90
21184;DHT22;18176;49.502;11.754;2023-11-19T10:42:15;11.20;99.90
21184;DHT22;18176;49.502;11.754;2023-11-19T10:46:17;11.10;99.90
21184;DHT22;18176;49.502;11.754;2023-11-19T10:50:22;11.20;99.90
21184;DHT22;18176;49.502;11.754;2023-11-19T10:54:23;11.30;99.90
21184;DHT22;18176;49.502;11.754;2023-11-19T10:58:27;11.40;99.90
21184;DHT22;18176;49.502;11.754;2023-11-19T11:02:33;11.50;99.90
21184;DHT22;18176;49.502;11.754;2023-11-19T11:06:42;11.60;99.90
21184;DHT22;18176;49.502;11.754;2023-11-19T11:10:44;11.70;99.90
21184;DHT22;18176;49.502;11.754;2023-11-19T11:14:49;11.70;99.90
21184;DHT22;18176;49.502;11.754;2023-11-19T11:18:50;11.80;99.90
21184;DHT22;18176;49.502;11.754;2023-11-19T11:23:06;11.80;99.90
21184;DHT22;18176;49.502;11.754;2023-11-19T11:27:47;11.50;99.90
21184;DHT22;18176;49.502;11.754;2023-11-19T11:32:12;11.40;99.90
21184;DHT22;18176;49.502;11.754;2023-11-19T11:36:23;11.50;99.90
21184;DHT22;18176;49.502;11.754;2023-11-19T11:40:27;11.60;99.90
21184;DHT22;18176;49.502;11.754;2023-11-19T11:44:58;11.60;99.90
21184;DHT22;18176;49.502;11.754;2023-11-19T11:49:03;12.20;99.90
21184;DHT22;18176;49.502;11.754;2023-11-19T11:53:13;13.00;99.90
21184;DHT22;18176;49.502;11.754;2023-11-19T11:57:18;13.40;99.90
21184;DHT22;18176;49.502;11.754;2023-11-19T12:01:20;13.80;99.90
21184;DHT22;18176;49.502;11.754;2023-11-19T12:05:25;13.70;99.90
21184;DHT22;18176;49.502;11.754;2023-11-19T12:09:26;13.40;99.90
21184;DHT22;18176;49.502;11.754;2023-11-19T12:13:47;13.40;99.90
21184;DHT22;18176;49.502;11.754;2023-11-19T12:17:54;13.90;99.90
21184;DHT22;18176;49.502;11.754;2023-11-19T12:21:55;13.50;99.90
21184;DHT22;18176;49.502;11.754;2023-11-19T12:25:59;13.10;99.90
21184;DHT22;18176;49.502;11.754;2023-11-19T12:30:04;12.80;99.90
21184;DHT22;18176;49.502;11.754;2023-11-19T12:34:06;12.70;99.90
21184;DHT22;18176;49.502;11.754;2023-11-19T12:38:18;12.50;99.90
21184;DHT22;18176;49.502;11.754;2023-11-19T12:42:19;12.10;99.90
21184;DHT22;18176;49.502;11.754;2023-11-19T12:46:23;11.90;99.90
21184;DHT22;18176;49.502;11.754;2023-11-19T12:50:24;11.80;99.90
21184;DHT22;18176;49.502;11.754;2023-11-19T12:54:34;11.70;99.90
21184;DHT22;18176;49.502;11.754;2023-11-19T12:58:36;11.60;99.90
21184;DHT22;18176;49.502;11.754;2023-11-19T13:02:51;11.50;99.90
21184;DHT22;18176;49.502;11.754;2023-11-19T13:06:53;11.30;99.90
21184;DHT22;18176;49.502;11.754;2023-11-19T13:10:57;11.20;99.90
21184;DHT22;18176;49.502;11.754;2023-11-19T13:14:57;11.10;99.90
21184;DHT22;18176;49.502;11.754;2023-11-19T13:19:00;11.10;99.90
21184;DHT22;18176;49.502;11.754;2023-11-19T13:23:02;11.00;99.90
21184;DHT22;18176;49.502;11.754;2023-11-19T13:27:04;11.00;99.90
21184;DHT22;18176;49.502;11.754;2023-11-19T13:31:05;11.00;99.90
21184;DHT22;18176;49.502;11.754;2023-11-19T13:35:10;11.00;99.90
21184;DHT22;18176;49.502;11.754;2023-11-19T13:39:10;10.90;99.90
21184;DHT22;18176;49.502;11.754;2023-11-19T13:43:19;10.90;99.90
21184;DHT22;18176;49.502;11.754;2023-11-19T13:47:21;10.90;99.90
21184;DHT22;18176;49.502;11.754;2023-11-19T13:51:24;10.90;99.90
21184;DHT22;18176;49.502;11.754;2023-11-19T13:55:25;10.80;99.90
21184;DHT22;18176;49.502;11.754;2023-11-19T13:59:25;10.80;99.90
21184;DHT22;18176;49.502;11.754;2023-11-19T14:03:26;10.70;99.90
21184;DHT22;18176;49.502;11.754;2023-11-19T14:07:29;10.80;99.90
21184;DHT22;18176;49.502;11.754;2023-11-19T14:11:29;10.80;99.90
21184;DHT22;18176;49.502;11.754;2023-11-19T14:15:30;10.80;99.90
21184;DHT22;18176;49.502;11.754;2023-11-19T14:19:30;10.70;99.90
21184;DHT22;18176;49.502;11.754;2023-11-19T14:23:34;10.60;99.90
21184;DHT22;18176;49.502;11.754;2023-11-19T14:27:34;10.50;99.90
21184;DHT22;18176;49.502;11.754;2023-11-19T14:31:34;10.50;99.90
21184;DHT22;18176;49.502;11.754;2023-11-19T14:35:35;10.50;99.90
21184;DHT22;18176;49.502;11.754;2023-11-19T14:39:38;10.50;99.90
21184;DHT22;18176;49.502;11.754;2023-11-19T14:43:39;10.60;99.90
21184;DHT22;18176;49.502;11.754;2023-11-19T14:47:40;10.70;99.90
21184;DHT22;18176;49.502;11.754;2023-11-19T14:51:40;10.60;99.90
21184;DHT22;18176;49.502;11.754;2023-11-19T14:55:46;10.50;99.90
21184;DHT22;18176;49.502;11.754;2023-11-19T14:59:46;10.40;99.90
21184;DHT22;18176;49.502;11.754;2023-11-19T15:03:47;10.20;99.90
21184;DHT22;18176;49.502;11.754;2023-11-19T15:07:52;10.20;99.90
21184;DHT22;18176;49.502;11.754;2023-11-19T15:11:56;10.30;99.90
21184;DHT22;18176;49.502;11.754;2023-11-19T15:15:56;10.30;99.90
21184;DHT22;18176;49.502;11.754;2023-11-19T15:19:57;10.10;99.90
21184;DHT22;18176;49.502;11.754;2023-11-19T15:23:57;9.90;99.90
21184;DHT22;18176;49.502;11.754;2023-11-19T15:28:00;9.90;99.90
21184;DHT22;18176;49.502;11.754;2023-11-19T15:32:00;9.80;99.90
21184;DHT22;18176;49.502;11.754;2023-11-19T15:36:00;9.70;99.90
21184;DHT22;18176;49.502;11.754;2023-11-19T15:40:06;9.80;99.90
21184;DHT22;18176;49.502;11.754;2023-11-19T15:44:12;9.80;99.90
21184;DHT22;18176;49.502;11.754;2023-11-19T15:48:12;10.00;99.90
21184;DHT22;18176;49.502;11.754;2023-11-19T15:52:12;10.00;99.90
21184;DHT22;18176;49.502;11.754;2023-11-19T15:56:13;9.90;99.90
21184;DHT22;18176;49.502;11.754;2023-11-19T16:00:17;9.90;99.90
21184;DHT22;18176;49.502;11.754;2023-11-19T16:04:18;9.90;99.90
21184;DHT22;18176;49.502;11.754;2023-11-19T16:08:19;9.90;99.90
21184;DHT22;18176;49.502;11.754;2023-11-19T16:12:20;10.00;99.90
21184;DHT22;18176;49.502;11.754;2023-11-19T16:16:25;9.90;99.90
21184;DHT22;18176;49.502;11.754;2023-11-19T16:20:25;9.80;99.90
21184;DHT22;18176;49.502;11.754;2023-11-19T16:24:27;9.70;99.90
21184;DHT22;18176;49.502;11.754;2023-11-19T16:28:27;9.70;99.90
21184;DHT22;18176;49.502;11.754;2023-11-19T16:32:31;9.70;99.90
21184;DHT22;18176;49.502;11.754;2023-11-19T16:36:32;9.70;99.90
21184;DHT22;18176;49.502;11.754;2023-11-19T16:40:32;9.70;99.90
21184;DHT22;18176;49.502;11.754;2023-11-19T16:44:35;9.60;99.90
21184;DHT22;18176;49.502;11.754;2023-11-19T16:48:39;9.50;99.90
21184;DHT22;18176;49.502;11.754;2023-11-19T16:52:40;9.50;99.90
21184;DHT22;18176;49.502;11.754;2023-11-19T16:56:41;9.40;99.90
21184;DHT22;18176;49.502;11.754;2023-11-19T17:00:41;9.30;99.90
21184;DHT22;18176;49.502;11.754;2023-11-19T17:04:44;9.20;99.90
21184;DHT22;18176;49.502;11.754;2023-11-19T17:08:45;9.00;99.90
21184;DHT22;18176;49.502;11.754;2023-11-19T17:12:46;8.90;99.90
21184;DHT22;18176;49.502;11.754;2023-11-19T17:16:46;8.70;99.90
21184;DHT22;18176;49.502;11.754;2023-11-19T17:20:49;8.80;99.90
21184;DHT22;18176;49.502;11.754;2023-11-19T17:24:51;8.80;99.90
21184;DHT22;18176;49.502;11.754;2023-11-19T17:28:51;8.80;99.90
21184;DHT22;18176;49.502;11.754;2023-11-19T17:32:51;8.90;99.90
21184;DHT22;18176;49.502;11.754;2023-11-19T17:36:54;9.00;99.90
21184;DHT22;18176;49.502;11.754;2023-11-19T17:40:55;9.00;99.90
21184;DHT22;18176;49.502;11.754;2023-11-19T17:44:55;9.20;99.90
21184;DHT22;18176;49.502;11.754;2023-11-19T17:48:55;9.40;99.90
21184;DHT22;18176;49.502;11.754;2023-11-19T17:52:58;9.50;99.90
21184;DHT22;18176;49.502;11.754;2023-11-19T17:56:58;9.50;99.90
21184;DHT22;18176;49.502;11.754;2023-11-19T18:01:00;9.40;99.90
21184;DHT22;18176;49.502;11.754;2023-11-19T18:05:00;9.40;99.90
21184;DHT22;18176;49.502;11.754;2023-11-19T18:09:05;9.30;99.90
21184;DHT22;18176;49.502;11.754;2023-11-19T18:13:06;9.40;99.90
21184;DHT22;18176;49.502;11.754;2023-11-19T18:17:07;9.40;99.90
21184;DHT22;18176;49.502;11.754;2023-11-19T18:21:09;9.40;99.90
21184;DHT22;18176;49.502;11.754;2023-11-19T18:25:12;9.40;99.90
21184;DHT22;18176;49.502;11.754;2023-11-19T18:29:15;9.30;99.90
21184;DHT22;18176;49.502;11.754;2023-11-19T18:33:16;9.20;99.90
21184;DHT22;18176;49.502;11.754;2023-11-19T18:37:16;9.20;99.90
21184;DHT22;18176;49.502;11.754;2023-11-19T18:41:19;9.10;99.90
21184;DHT22;18176;49.502;11.754;2023-11-19T18:45:19;9.20;99.90
21184;DHT22;18176;49.502;11.754;2023-11-19T18:49:20;9.10;99.90
21184;DHT22;18176;49.502;11.754;2023-11-19T18:53:20;9.10;99.90
21184;DHT22;18176;49.502;11.754;2023-11-19T18:57:23;9.10;99.90
21184;DHT22;18176;49.502;11.754;2023-11-19T19:01:24;9.00;99.90
21184;DHT22;18176;49.502;11.754;2023-11-19T19:05:27;8.90;99.90
21184;DHT22;18176;49.502;11.754;2023-11-19T19:09:28;8.80;99.90
21184;DHT22;18176;49.502;11.754;2023-11-19T19:13:31;8.70;99.90
21184;DHT22;18176;49.502;11.754;2023-11-19T19:17:32;8.60;99.90
21184;DHT22;18176;49.502;11.754;2023-11-19T19:21:33;8.60;99.90
21184;DHT22;18176;49.502;11.754;2023-11-19T19:25:33;8.60;99.90
21184;DHT22;18176;49.502;11.754;2023-11-19T19:29:36;8.50;99.90
21184;DHT22;18176;49.502;11.754;2023-11-19T19:33:37;8.40;99.90
21184;DHT22;18176;49.502;11.754;2023-11-19T19:37:37;8.60;99.90
21184;DHT22;18176;49.502;11.754;2023-11-19T19:41:37;8.80;99.90
21184;DHT22;18176;49.502;11.754;2023-11-19T19:45:40;8.80;99.90
21184;DHT22;18176;49.502;11.754;2023-11-19T19:49:41;8.80;99.90
21184;DHT22;18176;49.502;11.754;2023-11-19T19:53:42;8.80;99.90
21184;DHT22;18176;49.502;11.754;2023-11-19T19:57:43;8.70;99.90
21184;DHT22;18176;49.502;11.754;2023-11-19T20:01:53;8.60;99.90
21184;DHT22;18176;49.502;11.754;2023-11-19T20:05:56;8.20;99.90
21184;DHT22;18176;49.502;11.754;2023-11-19T20:09:57;8.10;99.90
21184;DHT22;18176;49.502;11.754;2023-11-19T20:13:57;8.10;99.90
21184;DHT22;18176;49.502;11.754;2023-11-19T20:18:01;8.10;99.90
21184;DHT22;18176;49.502;11.754;2023-11-19T20:22:01;8.10;99.90
21184;DHT22;18176;49.502;11.754;2023-11-19T20:26:02;8.10;99.90
21184;DHT22;18176;49.502;11.754;2023-11-19T20:30:04;8.10;99.90
21184;DHT22;18176;49.502;11.754;2023-11-19T20:34:08;8.00;99.90
21184;DHT22;18176;49.502;11.754;2023-11-19T20:38:09;7.80;99.90
21184;DHT22;18176;49.502;11.754;2023-11-19T20:42:10;7.60;99.90
21184;DHT22;18176;49.502;11.754;2023-11-19T20:46:11;7.60;99.90
21184;DHT22;18176;49.502;11.754;2023-11-19T20:50:15;7.60;99.90
21184;DHT22;18176;49.502;11.754;2023-11-19T20:54:19;7.60;99.90
21184;DHT22;18176;49.502;11.754;2023-11-19T20:58:22;7.60;99.90
21184;DHT22;18176;49.502;11.754;2023-11-19T21:02:23;7.40;99.90
21184;DHT22;18176;49.502;11.754;2023-11-19T21:06:27;7.40;99.90
21184;DHT22;18176;49.502;11.754;2023-11-19T21:10:28;7.50;99.90
21184;DHT22;18176;49.502;11.754;2023-11-19T21:14:28;7.60;99.90
21184;DHT22;18176;49.502;11.754;2023-11-19T21:18:30;7.70;99.90
21184;DHT22;18176;49.502;11.754;2023-11-19T21:22:36;7.80;99.90
21184;DHT22;18176;49.502;11.754;2023-11-19T21:26:37;7.80;99.90
21184;DHT22;18176;49.502;11.754;2023-11-19T21:30:39;7.80;99.90
21184;DHT22;18176;49.502;11.754;2023-11-19T21:34:41;7.70;99.90
21184;DHT22;18176;49.502;11.754;2023-11-19T21:38:44;7.50;99.90
21184;DHT22;18176;49.502;11.754;2023-11-19T21:42:45;7.50;99.90
21184;DHT22;18176;49.502;11.754;2023-11-19T21:46:46;7.50;99.90
21184;DHT22;18176;49.502;11.754;2023-11-19T21:50:48;7.40;99.90
21184;DHT22;18176;49.502;11.754;2023-11-19T21:54:51;7.50;99.90
21184;DHT22;18176;49.502;11.754;2023-11-19T21:58:51;7.50;99.90
21184;DHT22;18176;49.502;11.754;2023-11-19T22:02:52;7.30;99.90
21184;DHT22;18176;49.502;11.754;2023-11-19T22:06:53;7.10;99.90
21184;DHT22;18176;49.502;11.754;2023-11-19T22:10:57;7.10;99.90
21184;DHT22;18176;49.502;11.754;2023-11-19T22:14:57;7.00;99.90
21184;DHT22;18176;49.502;11.754;2023-11-19T22:18:59;6.90;99.90
21184;DHT22;18176;49.502;11.754;2023-11-19T22:23:01;6.80;99.90
21184;DHT22;18176;49.502;11.754;2023-11-19T22:27:04;6.70;99.90
21184;DHT22;18176;49.502;11.754;2023-11-19T22:31:05;6.60;99.90
21184;DHT22;18176;49.502;11.754;2023-11-19T22:35:08;6.70;99.90
21184;DHT22;18176;49.502;11.754;2023-11-19T22:39:10;6.70;99.90
21184;DHT22;18176;49.502;11.754;2023-11-19T22:43:14;6.80;99.90
21184;DHT22;18176;49.502;11.754;2023-11-19T22:47:15;6.80;99.90
21184;DHT22;18176;49.502;11.754;2023-11-19T22:51:15;7.00;99.90
21184;DHT22;18176;49.502;11.754;2023-11-19T22:55:16;7.00;99.90
21184;DHT22;18176;49.502;11.754;2023-11-19T22:59:19;7.00;99.90
21184;DHT22;18176;49.502;11.754;2023-11-19T23:03:19;7.00;99.90
21184;DHT22;18176;49.502;11.754;2023-11-19T23:07:20;7.10;99.90
21184;DHT22;18176;49.502;11.754;2023-11-19T23:11:21;7.10;99.90
21184;DHT22;18176;49.502;11.754;2023-11-19T23:15:24;7.10;99.90
21184;DHT22;18176;49.502;11.754;2023-11-19T23:19:25;7.00;99.90
21184;DHT22;18176;49.502;11.754;2023-11-19T23:23:25;7.00;99.90
21184;DHT22;18176;49.502;11.754;2023-11-19T23:27:25;7.10;99.90
21184;DHT22;18176;49.502;11.754;2023-11-19T23:31:28;7.20;99.90
21184;DHT22;18176;49.502;11.754;2023-11-19T23:35:29;7.20;99.90
21184;DHT22;18176;49.502;11.754;2023-11-19T23:39:31;7.60;99.90
21184;DHT22;18176;49.502;11.754;2023-11-19T23:43:31;7.80;99.90
21184;DHT22;18176;49.502;11.754;2023-11-19T23:47:34;7.90;99.90
21184;DHT22;18176;49.502;11.754;2023-11-19T23:51:37;7.90;99.90
21184;DHT22;18176;49.502;11.754;2023-11-19T23:55:38;7.90;99.90
21184;DHT22;18176;49.502;11.754;2023-11-19T23:59:41;8.00;99.90
